Time;durP1;ratioP1;P1;durP2;ratioP2;P2;SDS_P1;SDS_P2;PMS_P1;PMS_P2;Temp;Humidity;BMP_temperature;BMP_pressure;BME280_temperature;BME280_humidity;BME280_pressure;Samples;Min_cycle;Max_cycle;Signal;HPM_P1;HPM_P2
2021/10/23 00:01:56;;;;;;;15.33;2.93;;;5.00;99.90;;;;;;5110247;27;20039;-72
2021/10/23 00:04:22;;;;;;;12.17;2.40;;;5.00;99.90;;;;;;5076552;27;20047;-72
2021/10/23 00:06:48;;;;;;;8.80;2.37;;;5.00;99.90;;;;;;5110050;27;20094;-73
2021/10/23 00:09:13;;;;;;;15.43;2.93;;;4.90;99.90;;;;;;5092911;27;20051;-73
2021/10/23 00:11:39;;;;;;;13.47;3.13;;;4.90;99.90;;;;;;5092711;27;20039;-73
2021/10/23 00:14:05;;;;;;;13.23;2.77;;;5.00;99.90;;;;;;5076005;27;20039;-73
2021/10/23 00:16:31;;;;;;;13.93;2.90;;;5.00;99.90;;;;;;5075523;27;20039;-73
2021/10/23 00:18:57;;;;;;;15.43;2.80;;;4.90;99.90;;;;;;5058372;27;20063;-73
2021/10/23 00:21:23;;;;;;;11.70;2.57;;;4.90;99.90;;;;;;5108546;27;20043;-73
2021/10/23 00:23:48;;;;;;;13.20;2.87;;;4.90;99.90;;;;;;5093390;27;20070;-71
2021/10/23 00:26:14;;;;;;;9.90;2.47;;;4.90;99.90;;;;;;5092310;27;20038;-72
2021/10/23 00:28:40;;;;;;;13.77;2.53;;;4.90;99.90;;;;;;5072261;27;20039;-72
2021/10/23 00:31:07;;;;;;;16.10;2.90;;;4.90;99.90;;;;;;5092924;27;20394;-72
2021/10/23 00:33:35;;;;;;;19.90;2.90;;;4.90;99.90;;;;;;5110082;27;20043;-73
2021/10/23 00:36:04;;;;;;;12.13;2.73;;;4.90;99.90;;;;;;5093085;27;20078;-72
2021/10/23 00:38:30;;;;;;;13.23;3.13;;;4.90;99.90;;;;;;5075840;27;20036;-72
2021/10/23 00:40:56;;;;;;;11.77;2.70;;;4.90;99.90;;;;;;5057648;27;20051;-72
2021/10/23 00:43:21;;;;;;;11.87;2.13;;;4.90;99.90;;;;;;5109067;27;20070;-72
2021/10/23 00:45:48;;;;;;;11.30;2.53;;;4.90;99.90;;;;;;5109200;27;20047;-72
2021/10/23 00:48:14;;;;;;;14.03;2.30;;;4.90;99.90;;;;;;5092846;27;20133;-72
2021/10/23 00:50:41;;;;;;;10.90;2.60;;;4.90;99.90;;;;;;5091027;27;20039;-72
2021/10/23 00:53:07;;;;;;;13.63;2.80;;;4.90;99.90;;;;;;5092310;27;20047;-72
2021/10/23 00:55:34;;;;;;;8.93;2.00;;;4.90;99.90;;;;;;5092103;27;20143;-72
2021/10/23 00:57:59;;;;;;;11.10;2.03;;;5.00;99.90;;;;;;5091956;28;20508;-72
2021/10/23 01:00:25;;;;;;;10.20;2.77;;;5.00;99.90;;;;;;5108118;27;20043;-72
2021/10/23 01:02:51;;;;;;;13.60;2.50;;;5.10;99.90;;;;;;5092460;28;20047;-72
2021/10/23 01:05:17;;;;;;;12.90;2.20;;;5.10;99.90;;;;;;5075528;27;20072;-72
2021/10/23 01:07:43;;;;;;;15.80;2.80;;;5.20;99.90;;;;;;5108935;28;20082;-72
2021/10/23 01:10:11;;;;;;;11.43;2.80;;;5.20;99.90;;;;;;5108790;28;20597;-72
2021/10/23 01:12:41;;;;;;;10.90;1.70;;;5.30;99.90;;;;;;5108176;28;20071;-72
2021/10/23 01:15:24;;;;;;;9.93;2.20;;;5.30;99.90;;;;;;5090450;28;20046;-72
2021/10/23 01:17:51;;;;;;;10.17;2.17;;;5.40;99.90;;;;;;5092486;28;20035;-72
2021/10/23 01:20:17;;;;;;;10.93;2.80;;;5.40;99.90;;;;;;5106908;28;20122;-72
2021/10/23 01:22:43;;;;;;;16.23;2.63;;;5.40;99.90;;;;;;5109614;28;20195;-72
2021/10/23 01:25:11;;;;;;;12.47;2.20;;;5.40;99.90;;;;;;5109021;28;20122;-72
2021/10/23 01:27:40;;;;;;;12.00;2.23;;;5.50;99.90;;;;;;5085508;28;20079;-72
2021/10/23 01:30:09;;;;;;;11.70;2.13;;;5.50;99.90;;;;;;5102517;28;20035;-72
2021/10/23 01:32:36;;;;;;;12.60;2.30;;;5.50;99.90;;;;;;5091973;27;20396;-72
2021/10/23 01:35:03;;;;;;;14.17;2.93;;;5.50;99.90;;;;;;5111949;27;20108;-72
2021/10/23 01:37:43;;;;;;;8.53;2.10;;;5.50;99.90;;;;;;5111489;27;20047;-72
2021/10/23 01:40:13;;;;;;;9.60;1.77;;;5.60;99.90;;;;;;5108266;27;20535;-72
2021/10/23 01:42:42;;;;;;;16.98;2.90;;;5.50;99.90;;;;;;5112076;27;20027;-72
2021/10/23 01:45:09;;;;;;;9.70;2.23;;;5.60;99.90;;;;;;5109046;27;20136;-72
2021/10/23 01:47:38;;;;;;;7.97;1.83;;;5.60;99.90;;;;;;5110982;27;20107;-73
2021/10/23 01:50:06;;;;;;;13.77;2.40;;;5.60;99.90;;;;;;5107766;27;20050;-73
2021/10/23 01:52:32;;;;;;;11.83;2.70;;;5.60;99.90;;;;;;5111256;27;20101;-72
2021/10/23 01:54:58;;;;;;;17.23;2.77;;;5.60;99.90;;;;;;5111274;27;20469;-72
2021/10/23 01:57:23;;;;;;;9.40;2.17;;;5.60;99.90;;;;;;5106018;27;20386;-72
2021/10/23 01:59:51;;;;;;;18.50;6.63;;;5.60;99.90;;;;;;5073796;27;20039;-72
2021/10/23 02:02:17;;;;;;;12.73;4.23;;;5.60;99.90;;;;;;5108705;27;20557;-72
2021/10/23 02:04:43;;;;;;;9.70;2.80;;;5.70;99.90;;;;;;5095453;27;20039;-72
2021/10/23 02:07:09;;;;;;;12.50;2.57;;;5.60;99.90;;;;;;5113229;27;20047;-72
2021/10/23 02:09:35;;;;;;;16.53;3.50;;;5.70;99.90;;;;;;5095169;27;20047;-72
2021/10/23 02:12:01;;;;;;;10.67;2.90;;;5.70;99.90;;;;;;5113101;27;20054;-72
2021/10/23 02:14:27;;;;;;;12.40;3.20;;;5.70;99.90;;;;;;5089092;27;20035;-73
2021/10/23 02:16:53;;;;;;;11.97;2.90;;;5.80;99.90;;;;;;5110918;27;20042;-72
2021/10/23 02:19:19;;;;;;;13.63;3.00;;;5.80;99.90;;;;;;5074414;27;20050;-72
2021/10/23 02:21:45;;;;;;;14.73;3.23;;;5.80;99.90;;;;;;5093132;27;20039;-72
2021/10/23 02:24:11;;;;;;;13.83;2.40;;;5.90;99.90;;;;;;5095500;27;20160;-71
2021/10/23 02:26:36;;;;;;;10.47;2.00;;;5.80;99.90;;;;;;5078175;27;20489;-73
2021/10/23 02:29:02;;;;;;;11.27;2.23;;;5.80;99.90;;;;;;5077421;27;20043;-73
2021/10/23 02:31:28;;;;;;;12.63;2.53;;;5.80;99.90;;;;;;5112081;27;20039;-73
2021/10/23 02:33:54;;;;;;;12.93;2.33;;;5.80;99.90;;;;;;5077980;27;20039;-73
2021/10/23 02:36:20;;;;;;;11.17;2.17;;;5.80;99.90;;;;;;5094500;27;20523;-72
2021/10/23 02:38:49;;;;;;;11.03;2.00;;;5.70;99.90;;;;;;5110334;27;20051;-72
2021/10/23 02:41:17;;;;;;;10.90;1.80;;;5.70;99.90;;;;;;5095271;27;20051;-72
2021/10/23 02:43:43;;;;;;;11.90;2.00;;;5.60;99.90;;;;;;5093798;27;20037;-72
2021/10/23 02:46:09;;;;;;;14.63;2.40;;;5.60;99.90;;;;;;5111689;27;20039;-72
2021/10/23 02:48:34;;;;;;;14.90;2.80;;;5.60;99.90;;;;;;5123201;27;20043;-72
2021/10/23 02:51:00;;;;;;;12.07;2.00;;;5.60;99.90;;;;;;5093995;27;20042;-72
2021/10/23 02:53:26;;;;;;;10.47;2.60;;;5.60;99.90;;;;;;5094140;27;20039;-72
2021/10/23 02:55:52;;;;;;;9.50;1.90;;;5.60;99.90;;;;;;5094807;27;20413;-72
2021/10/23 02:58:18;;;;;;;10.40;2.00;;;5.50;99.90;;;;;;5087866;27;20094;-72
2021/10/23 03:00:44;;;;;;;8.60;1.70;;;5.50;99.90;;;;;;5093693;27;20043;-72
2021/10/23 03:03:10;;;;;;;7.00;2.10;;;5.50;99.90;;;;;;5094998;27;20047;-72
2021/10/23 03:05:36;;;;;;;13.27;1.97;;;5.50;99.90;;;;;;5112010;27;20501;-72
2021/10/23 03:08:05;;;;;;;10.03;1.90;;;5.50;99.90;;;;;;5112419;27;20039;-72
2021/10/23 03:10:31;;;;;;;12.33;2.27;;;5.50;99.90;;;;;;5094434;27;20035;-72
2021/10/23 03:12:56;;;;;;;7.83;1.80;;;5.50;99.90;;;;;;5111762;27;20035;-72
2021/10/23 03:15:22;;;;;;;9.13;1.93;;;5.50;99.90;;;;;;5111664;27;20057;-73
2021/10/23 03:17:48;;;;;;;13.73;2.43;;;5.40;99.90;;;;;;5112445;27;20043;-72
2021/10/23 03:20:15;;;;;;;8.00;2.30;;;5.40;99.90;;;;;;5110081;27;20108;-72
2021/10/23 03:22:40;;;;;;;11.43;2.30;;;5.30;99.90;;;;;;5093335;27;20043;-72
2021/10/23 03:25:07;;;;;;;9.20;2.37;;;5.30;99.90;;;;;;5111817;27;20111;-72
2021/10/23 03:27:35;;;;;;;12.20;1.80;;;5.30;99.90;;;;;;5111108;27;20502;-73
2021/10/23 03:30:00;;;;;;;15.43;2.50;;;5.20;99.90;;;;;;5109667;27;20062;-72
2021/10/23 03:32:26;;;;;;;9.03;1.40;;;5.20;99.90;;;;;;5093394;27;20537;-73
2021/10/23 03:34:59;;;;;;;9.37;2.00;;;5.20;99.90;;;;;;5111007;27;20055;-72
2021/10/23 03:37:43;;;;;;;9.37;2.27;;;5.20;99.90;;;;;;5093670;27;20730;-72
2021/10/23 03:40:09;;;;;;;9.80;2.27;;;5.20;99.90;;;;;;5107135;27;20034;-72
2021/10/23 03:42:35;;;;;;;8.97;1.70;;;5.10;99.90;;;;;;5090961;27;20043;-72
2021/10/23 03:45:01;;;;;;;10.73;2.10;;;5.10;99.90;;;;;;5075229;27;20122;-72
2021/10/23 03:47:26;;;;;;;9.23;1.90;;;5.10;99.90;;;;;;5109080;27;20513;-72
2021/10/23 03:49:52;;;;;;;7.80;1.90;;;5.10;99.90;;;;;;5092846;27;20054;-72
2021/10/23 03:52:18;;;;;;;11.33;2.23;;;5.20;99.90;;;;;;5094475;27;20047;-74
2021/10/23 03:54:43;;;;;;;8.50;1.90;;;5.20;99.90;;;;;;5093413;27;20035;-73
2021/10/23 03:57:09;;;;;;;9.37;2.03;;;5.20;99.90;;;;;;5076741;27;20047;-73
2021/10/23 03:59:36;;;;;;;11.63;2.00;;;5.30;99.90;;;;;;5093126;27;20048;-73
2021/10/23 04:02:05;;;;;;;11.37;2.37;;;5.30;99.90;;;;;;5092829;27;20101;-70
2021/10/23 04:04:31;;;;;;;11.43;2.10;;;5.40;99.90;;;;;;5078020;27;20515;-70
2021/10/23 04:06:58;;;;;;;14.13;2.37;;;5.50;99.90;;;;;;5094871;27;20129;-70
2021/10/23 04:09:23;;;;;;;7.53;1.53;;;5.50;99.90;;;;;;5094968;27;20047;-72
2021/10/23 04:11:49;;;;;;;9.07;2.00;;;5.50;99.90;;;;;;5094672;27;20130;-72
2021/10/23 04:14:15;;;;;;;9.73;2.60;;;5.50;99.90;;;;;;5095402;27;20256;-73
2021/10/23 04:16:41;;;;;;;12.07;2.60;;;5.60;99.90;;;;;;5095163;27;20101;-71
2021/10/23 04:19:06;;;;;;;12.53;2.23;;;5.60;99.90;;;;;;5073175;28;20047;-71
2021/10/23 04:21:32;;;;;;;11.23;2.30;;;5.70;99.90;;;;;;5107892;28;20039;-71
2021/10/23 04:23:58;;;;;;;9.23;2.17;;;5.70;99.90;;;;;;5088938;27;20195;-71
2021/10/23 04:26:27;;;;;;;8.50;2.10;;;5.70;99.90;;;;;;5061939;27;20059;-71
2021/10/23 04:28:53;;;;;;;11.23;2.40;;;5.70;99.90;;;;;;5075905;27;20046;-70
2021/10/23 04:31:18;;;;;;;10.20;1.97;;;5.70;99.90;;;;;;5094249;27;20512;-71
2021/10/23 04:33:44;;;;;;;12.13;2.20;;;5.80;99.90;;;;;;5128473;27;20501;-71
2021/10/23 04:36:14;;;;;;;9.83;1.80;;;5.80;99.90;;;;;;5128675;27;20083;-71
2021/10/23 04:38:40;;;;;;;9.05;1.92;;;5.80;99.90;;;;;;5092296;27;20051;-71
2021/10/23 04:41:06;;;;;;;8.07;1.90;;;5.80;99.90;;;;;;5107737;28;20107;-71
2021/10/23 04:43:35;;;;;;;10.57;2.10;;;5.70;99.90;;;;;;5090998;28;20136;-70
2021/10/23 04:46:04;;;;;;;9.07;1.70;;;5.70;99.90;;;;;;5125405;27;20134;-72
2021/10/23 04:48:34;;;;;;;10.20;2.53;;;5.70;99.90;;;;;;5073718;28;20139;-71
2021/10/23 04:51:00;;;;;;;8.83;1.90;;;5.70;99.90;;;;;;5091378;28;20128;-71
2021/10/23 04:53:25;;;;;;;11.33;2.10;;;5.60;99.90;;;;;;5107118;28;20075;-72
2021/10/23 04:55:51;;;;;;;9.37;1.97;;;5.60;99.90;;;;;;5107827;28;20820;-71
2021/10/23 04:58:17;;;;;;;9.90;2.17;;;5.50;99.90;;;;;;5107799;28;20051;-71
2021/10/23 05:00:43;;;;;;;10.60;2.20;;;5.50;99.90;;;;;;5123978;27;20545;-71
2021/10/23 05:03:09;;;;;;;11.73;2.70;;;5.50;99.90;;;;;;5073692;28;20574;-71
2021/10/23 05:05:34;;;;;;;10.73;2.73;;;5.50;99.90;;;;;;5107678;27;20143;-71
2021/10/23 05:08:00;;;;;;;12.83;3.40;;;5.40;99.90;;;;;;5110972;27;20035;-71
2021/10/23 05:10:26;;;;;;;13.00;3.33;;;5.30;99.90;;;;;;5094299;28;20066;-73
2021/10/23 05:12:52;;;;;;;8.23;3.00;;;5.30;99.90;;;;;;5111656;28;20047;-73
2021/10/23 05:15:18;;;;;;;10.30;3.47;;;5.30;99.90;;;;;;5077909;28;20130;-73
2021/10/23 05:17:44;;;;;;;10.27;2.73;;;5.20;99.90;;;;;;5094120;28;20139;-73
2021/10/23 05:20:10;;;;;;;10.90;2.90;;;5.20;99.90;;;;;;5089800;28;20039;-72
2021/10/23 05:22:36;;;;;;;10.03;2.50;;;5.20;99.90;;;;;;5077108;28;20054;-71
2021/10/23 05:25:05;;;;;;;10.00;2.77;;;5.10;99.90;;;;;;5111741;28;20055;-71
2021/10/23 05:27:35;;;;;;;10.52;2.33;;;5.10;99.90;;;;;;5094041;28;20048;-71
2021/10/23 05:30:00;;;;;;;13.53;2.73;;;5.10;99.90;;;;;;5089932;28;20559;-71
2021/10/23 05:32:26;;;;;;;11.03;2.77;;;5.10;99.90;;;;;;5107251;28;20043;-71
2021/10/23 05:34:52;;;;;;;8.67;2.27;;;5.00;99.90;;;;;;5090905;28;20051;-71
2021/10/23 05:37:19;;;;;;;8.67;2.27;;;5.00;99.90;;;;;;5090742;28;20040;-71
2021/10/23 05:39:44;;;;;;;10.80;2.60;;;5.00;99.90;;;;;;5132319;27;20031;-71
2021/10/23 05:42:10;;;;;;;9.63;2.20;;;5.00;99.90;;;;;;5093546;28;20054;-71
2021/10/23 05:44:36;;;;;;;8.33;2.47;;;5.00;99.90;;;;;;5109532;28;20141;-72
2021/10/23 05:47:05;;;;;;;12.30;3.00;;;5.00;99.90;;;;;;5111146;27;20047;-71
2021/10/23 05:49:30;;;;;;;11.47;2.90;;;5.00;99.90;;;;;;5099108;28;20520;-72
2021/10/23 05:51:56;;;;;;;9.30;2.50;;;4.90;99.90;;;;;;5107089;28;20048;-73
2021/10/23 05:54:22;;;;;;;17.27;3.70;;;4.90;99.90;;;;;;5055954;28;20048;-73
2021/10/23 05:56:48;;;;;;;19.37;4.73;;;4.90;99.90;;;;;;5106465;28;20043;-73
2021/10/23 05:59:15;;;;;;;12.27;3.37;;;4.90;99.90;;;;;;5086217;28;20079;-73
2021/10/23 06:01:44;;;;;;;19.80;4.20;;;4.90;99.90;;;;;;5069432;28;20040;-73
2021/10/23 06:04:11;;;;;;;10.67;3.20;;;4.90;99.90;;;;;;5086481;28;20105;-73
2021/10/23 06:06:41;;;;;;;16.07;4.10;;;4.90;99.90;;;;;;5089291;28;20047;-73
2021/10/23 06:09:07;;;;;;;14.82;4.10;;;4.90;99.90;;;;;;5089949;28;20505;-73
2021/10/23 06:11:33;;;;;;;8.87;2.90;;;4.90;99.90;;;;;;5084671;28;20036;-73
2021/10/23 06:13:59;;;;;;;15.67;5.73;;;4.90;99.90;;;;;;5096814;28;20051;-73
2021/10/23 06:16:26;;;;;;;18.60;5.47;;;5.00;99.90;;;;;;5081637;28;20762;-73
2021/10/23 06:18:52;;;;;;;21.03;5.63;;;5.00;99.90;;;;;;5103278;27;20048;-72
2021/10/23 06:21:18;;;;;;;12.63;4.13;;;5.00;99.90;;;;;;5091697;28;20043;-72
2021/10/23 06:23:44;;;;;;;22.10;5.60;;;5.10;99.90;;;;;;5090778;28;20055;-73
2021/10/23 06:26:10;;;;;;;20.47;5.70;;;5.10;99.90;;;;;;5087838;28;20573;-73
2021/10/23 06:28:36;;;;;;;17.30;5.47;;;5.20;99.90;;;;;;5096511;28;20040;-73
2021/10/23 06:31:07;;;;;;;19.40;6.87;;;5.20;99.90;;;;;;5095682;28;20051;-73
2021/10/23 06:33:34;;;;;;;19.93;6.67;;;5.30;99.90;;;;;;5121418;27;20052;-72
2021/10/23 06:36:00;;;;;;;20.50;5.60;;;5.30;99.90;;;;;;5113208;27;20497;-72
2021/10/23 06:38:29;;;;;;;22.43;6.30;;;5.40;99.90;;;;;;5111749;27;20054;-71
2021/10/23 06:40:55;;;;;;;13.00;5.43;;;5.50;99.90;;;;;;5091280;28;20040;-71
2021/10/23 06:43:21;;;;;;;12.53;4.13;;;5.50;99.90;;;;;;5098791;28;20395;-71
2021/10/23 06:45:48;;;;;;;15.17;5.70;;;5.50;99.90;;;;;;5104080;28;20096;-71
2021/10/23 06:48:14;;;;;;;16.43;5.87;;;5.60;99.90;;;;;;5103913;28;20783;-72
2021/10/23 06:50:40;;;;;;;15.17;5.23;;;5.60;99.90;;;;;;5104150;28;20067;-71
2021/10/23 06:53:05;;;;;;;18.63;5.37;;;5.70;99.90;;;;;;5074138;28;20171;-73
2021/10/23 06:55:31;;;;;;;19.43;4.70;;;5.80;99.90;;;;;;5133487;27;20042;-72
2021/10/23 06:57:57;;;;;;;17.60;5.20;;;5.90;99.90;;;;;;5070651;28;20442;-72
2021/10/23 07:00:23;;;;;;;17.37;4.70;;;6.00;99.90;;;;;;5105074;28;20044;-72
2021/10/23 07:02:49;;;;;;;20.17;4.43;;;6.10;99.90;;;;;;5107227;28;20050;-72
2021/10/23 07:05:16;;;;;;;19.40;4.23;;;6.30;99.90;;;;;;5090078;28;20047;-72
2021/10/23 07:07:42;;;;;;;17.23;3.83;;;6.30;99.90;;;;;;5106143;28;20039;-73
2021/10/23 07:10:09;;;;;;;14.53;3.70;;;6.40;99.90;;;;;;5087088;28;20061;-72
2021/10/23 07:12:35;;;;;;;17.50;4.30;;;6.50;99.90;;;;;;5089530;28;20036;-72
2021/10/23 07:15:02;;;;;;;14.73;3.87;;;6.50;99.90;;;;;;5104475;28;20059;-72
2021/10/23 07:17:29;;;;;;;15.52;3.60;;;6.60;99.90;;;;;;5089312;28;20526;-73
2021/10/23 07:19:55;;;;;;;19.03;3.43;;;6.60;99.90;;;;;;5107203;28;20047;-73
2021/10/23 07:22:23;;;;;;;18.50;4.00;;;6.70;99.90;;;;;;5087844;28;20108;-73
2021/10/23 07:24:50;;;;;;;19.70;4.13;;;6.70;99.90;;;;;;5090283;28;20047;-73
2021/10/23 07:27:15;;;;;;;13.73;3.42;;;6.80;99.90;;;;;;5107644;28;20498;-73
2021/10/23 07:29:42;;;;;;;17.27;4.22;;;6.90;99.90;;;;;;5088568;28;20054;-72
2021/10/23 07:32:08;;;;;;;16.08;3.50;;;6.90;99.90;;;;;;5074041;28;20104;-73
2021/10/23 07:34:34;;;;;;;15.63;3.58;;;7.00;99.90;;;;;;5089920;28;20494;-73
2021/10/23 07:37:00;;;;;;;18.02;3.45;;;7.00;99.90;;;;;;5073481;28;20502;-73
2021/10/23 07:39:26;;;;;;;14.00;3.88;;;7.00;99.90;;;;;;5089477;28;20056;-73
2021/10/23 07:41:52;;;;;;;12.70;3.28;;;7.00;99.90;;;;;;5072114;28;20040;-73
2021/10/23 07:44:18;;;;;;;14.00;3.63;;;7.00;99.90;;;;;;5072977;28;20067;-73
2021/10/23 07:46:45;;;;;;;11.65;3.42;;;7.00;99.90;;;;;;5072821;28;20040;-73
2021/10/23 07:49:11;;;;;;;14.18;4.05;;;7.00;99.90;;;;;;5090660;28;20067;-73
2021/10/23 07:51:38;;;;;;;13.35;3.72;;;6.90;99.90;;;;;;5089508;28;20118;-73
2021/10/23 07:54:05;;;;;;;13.57;3.95;;;6.90;99.90;;;;;;5071646;28;20040;-72
2021/10/23 07:56:32;;;;;;;14.15;4.18;;;6.90;99.90;;;;;;5089737;28;20050;-73
2021/10/23 07:58:59;;;;;;;14.70;3.53;;;6.90;99.90;;;;;;5106871;28;20055;-73
2021/10/23 08:01:28;;;;;;;12.10;4.25;;;6.90;99.90;;;;;;5104291;28;20109;-72
2021/10/23 08:03:54;;;;;;;13.20;3.45;;;6.90;99.90;;;;;;5105624;28;20036;-72
2021/10/23 08:06:21;;;;;;;11.32;3.63;;;7.00;99.90;;;;;;5106136;28;20469;-72
2021/10/23 08:08:46;;;;;;;13.48;4.03;;;7.10;99.90;;;;;;5106279;28;20131;-72
2021/10/23 08:11:12;;;;;;;13.68;4.03;;;7.20;99.90;;;;;;5086703;28;20111;-72
2021/10/23 08:13:38;;;;;;;10.32;3.08;;;7.30;99.90;;;;;;5087727;28;20055;-72
2021/10/23 08:16:04;;;;;;;17.13;3.72;;;7.50;99.90;;;;;;5106968;28;20067;-72
2021/10/23 08:18:30;;;;;;;13.55;3.40;;;7.80;99.90;;;;;;5089481;28;20035;-71
2021/10/23 08:20:56;;;;;;;11.95;3.42;;;8.00;99.90;;;;;;5089645;28;20134;-72
2021/10/23 08:23:22;;;;;;;9.95;2.13;;;8.10;99.90;;;;;;5107386;28;20146;-72
2021/10/23 08:25:50;;;;;;;12.75;2.88;;;8.40;99.90;;;;;;5088988;28;20051;-73
2021/10/23 08:28:15;;;;;;;10.48;2.83;;;8.50;99.90;;;;;;5072827;28;20056;-73
2021/10/23 08:30:41;;;;;;;12.20;2.75;;;8.60;99.90;;;;;;5087785;28;20050;-73
2021/10/23 08:33:07;;;;;;;11.48;2.40;;;8.70;99.90;;;;;;5090210;28;20048;-73
2021/10/23 08:35:33;;;;;;;10.75;2.78;;;8.80;99.90;;;;;;5088723;28;20069;-72
2021/10/23 08:37:59;;;;;;;9.98;2.22;;;8.90;99.90;;;;;;5105078;28;20032;-72
2021/10/23 08:40:27;;;;;;;12.18;2.60;;;8.90;99.90;;;;;;5084982;28;20039;-72
2021/10/23 08:42:53;;;;;;;12.35;2.42;;;9.00;99.90;;;;;;5102338;28;20043;-71
2021/10/23 08:45:20;;;;;;;13.27;2.40;;;9.10;99.90;;;;;;5069210;28;20035;-72
2021/10/23 08:47:46;;;;;;;9.35;2.95;;;9.20;99.90;;;;;;5067388;28;20044;-72
2021/10/23 08:50:19;;;;;;;11.90;2.17;;;9.30;99.90;;;;;;5067971;28;20040;-72
2021/10/23 08:52:49;;;;;;;11.10;2.10;;;9.40;99.90;;;;;;5103157;28;20465;-72
2021/10/23 08:55:17;;;;;;;8.52;2.25;;;9.50;99.90;;;;;;5070514;28;20130;-72
2021/10/23 08:57:44;;;;;;;10.32;2.67;;;9.50;99.90;;;;;;5103354;28;20077;-72
2021/10/23 09:00:12;;;;;;;11.75;2.60;;;9.60;99.90;;;;;;5085148;28;20101;-72
2021/10/23 09:02:38;;;;;;;10.45;2.72;;;9.60;99.90;;;;;;5086230;28;20043;-72
2021/10/23 09:05:05;;;;;;;11.15;1.85;;;9.70;99.90;;;;;;5087741;28;20040;-72
2021/10/23 09:07:32;;;;;;;8.98;2.35;;;9.70;99.90;;;;;;5103332;28;20047;-72
2021/10/23 09:10:06;;;;;;;10.77;2.00;;;9.70;99.90;;;;;;5071337;28;20031;-71
2021/10/23 09:12:38;;;;;;;11.10;1.95;;;9.80;99.90;;;;;;5084482;28;20044;-71
2021/10/23 09:15:18;;;;;;;12.57;2.20;;;9.80;99.90;;;;;;5084590;28;20135;-71
2021/10/23 09:17:53;;;;;;;7.07;2.00;;;9.80;99.90;;;;;;5103099;28;20044;-71
2021/10/23 09:20:22;;;;;;;11.07;2.47;;;9.80;99.90;;;;;;5086785;28;20039;-71
2021/10/23 09:22:50;;;;;;;10.32;2.40;;;9.90;99.90;;;;;;5102789;28;20067;-71
2021/10/23 09:25:20;;;;;;;10.02;2.55;;;9.90;99.90;;;;;;5086297;28;20040;-71
2021/10/23 09:27:47;;;;;;;10.23;2.85;;;9.90;99.90;;;;;;5102368;28;20048;-71
2021/10/23 09:30:14;;;;;;;9.43;2.22;;;10.00;99.90;;;;;;5084815;28;20043;-71
2021/10/23 09:32:40;;;;;;;10.13;1.98;;;10.00;99.90;;;;;;5085385;28;20058;-72
2021/10/23 09:35:17;;;;;;;9.02;2.25;;;10.00;99.90;;;;;;5069446;28;20039;-71
2021/10/23 09:37:44;;;;;;;8.23;2.40;;;10.10;99.90;;;;;;5085175;28;20055;-71
2021/10/23 09:40:20;;;;;;;8.63;2.13;;;10.10;99.90;;;;;;5084375;28;20793;-71
2021/10/23 09:42:46;;;;;;;8.88;2.08;;;10.20;99.90;;;;;;5085271;28;20413;-71
2021/10/23 09:45:13;;;;;;;10.68;2.22;;;10.30;99.90;;;;;;5101580;28;20035;-71
2021/10/23 09:47:45;;;;;;;9.40;2.10;;;10.30;99.90;;;;;;5101944;28;20035;-71
2021/10/23 09:50:20;;;;;;;9.15;2.10;;;10.40;99.90;;;;;;5085666;28;20046;-71
2021/10/23 09:53:08;;;;;;;8.27;2.03;;;10.40;99.90;;;;;;5086643;28;20071;-71
2021/10/23 09:55:49;;;;;;;8.25;2.00;;;10.40;99.90;;;;;;5089377;28;20452;-71
2021/10/23 09:58:17;;;;;;;10.05;2.22;;;10.40;99.90;;;;;;5090150;27;20105;-70
2021/10/23 10:00:44;;;;;;;10.88;2.55;;;10.50;99.90;;;;;;5109195;27;20039;-71
2021/10/23 10:03:11;;;;;;;9.73;2.28;;;10.50;99.90;;;;;;5076503;27;20096;-71
2021/10/23 10:05:37;;;;;;;10.77;2.58;;;10.60;99.90;;;;;;5075790;27;20047;-71
2021/10/23 10:08:11;;;;;;;9.15;2.20;;;10.60;99.90;;;;;;5109759;27;20054;-70
2021/10/23 10:10:39;;;;;;;9.27;2.40;;;10.60;99.90;;;;;;5109508;27;20106;-70
2021/10/23 10:13:13;;;;;;;10.70;2.05;;;10.60;99.90;;;;;;5093067;27;20114;-70
2021/10/23 10:15:43;;;;;;;9.18;2.75;;;10.60;99.90;;;;;;5090998;27;20047;-70
2021/10/23 10:18:09;;;;;;;14.23;3.20;;;10.60;99.90;;;;;;5076586;27;20046;-70
2021/10/23 10:20:37;;;;;;;9.18;2.47;;;10.60;99.90;;;;;;5108833;27;20043;-71
2021/10/23 10:23:10;;;;;;;10.35;2.10;;;10.70;99.90;;;;;;5075863;27;20123;-71
2021/10/23 10:25:37;;;;;;;9.55;2.65;;;10.70;99.90;;;;;;5108960;27;20608;-70
2021/10/23 10:28:11;;;;;;;9.27;2.30;;;10.70;99.90;;;;;;5108800;27;20047;-70
2021/10/23 10:30:40;;;;;;;12.30;2.40;;;10.80;99.90;;;;;;5108112;27;20054;-70
2021/10/23 10:33:33;;;;;;;8.77;2.03;;;10.80;99.90;;;;;;5092308;27;20035;-71
2021/10/23 10:38:57;;;;;;;10.10;2.25;;;10.80;99.90;;;;;;5105750;27;20031;-70
2021/10/23 10:44:15;;;;;;;9.55;1.88;;;10.90;99.90;;;;;;5090519;27;20043;-71
2021/10/23 10:47:00;;;;;;;17.20;2.50;;;10.90;99.90;;;;;;5090688;27;20493;-71
2021/10/23 10:49:43;;;;;;;10.40;2.20;;;11.00;99.90;;;;;;5110161;27;20119;-71
2021/10/23 10:52:40;;;;;;;8.63;2.20;;;11.00;99.90;;;;;;5091924;27;20510;-71
2021/10/23 10:55:16;;;;;;;7.50;2.58;;;11.00;99.90;;;;;;5107328;27;20066;-71
2021/10/23 10:57:56;;;;;;;10.57;2.65;;;11.00;99.90;;;;;;5090648;27;20146;-71
2021/10/23 11:00:23;;;;;;;12.18;2.45;;;11.00;99.90;;;;;;5091945;27;20138;-71
2021/10/23 11:02:48;;;;;;;9.75;2.83;;;10.90;99.90;;;;;;5091634;27;20541;-71
2021/10/23 11:05:19;;;;;;;8.38;2.70;;;11.00;99.90;;;;;;5090564;27;20092;-71
2021/10/23 11:08:05;;;;;;;13.77;2.25;;;11.00;99.90;;;;;;5091501;27;20511;-71
2021/10/23 11:10:53;;;;;;;8.43;1.88;;;11.00;99.90;;;;;;5107068;27;20096;-71
2021/10/23 11:13:40;;;;;;;7.32;2.50;;;11.10;99.90;;;;;;5091422;27;20123;-71
2021/10/23 11:16:27;;;;;;;12.15;2.40;;;11.10;99.90;;;;;;5091563;27;20050;-71
2021/10/23 11:18:59;;;;;;;8.82;1.85;;;11.10;99.90;;;;;;5091313;27;20071;-71
2021/10/23 11:21:30;;;;;;;6.65;2.00;;;11.10;99.90;;;;;;5108120;27;20050;-71
2021/10/23 11:23:56;;;;;;;9.07;1.95;;;11.10;99.90;;;;;;5089875;27;20667;-71
2021/10/23 11:26:22;;;;;;;9.13;1.85;;;11.10;99.90;;;;;;5090138;27;20069;-71
2021/10/23 11:28:50;;;;;;;6.25;2.22;;;11.00;99.90;;;;;;5104337;27;20039;-71
2021/10/23 11:31:23;;;;;;;11.25;2.15;;;11.00;99.90;;;;;;5089862;27;20476;-71
2021/10/23 11:33:52;;;;;;;11.15;1.95;;;11.00;99.90;;;;;;5090666;27;20050;-71
2021/10/23 11:36:19;;;;;;;9.48;2.22;;;11.10;99.90;;;;;;5106592;27;20035;-71
2021/10/23 11:38:51;;;;;;;8.57;2.13;;;11.10;99.90;;;;;;5072065;27;20556;-71
2021/10/23 11:41:24;;;;;;;9.50;2.47;;;11.20;99.90;;;;;;5123128;27;20054;-71
2021/10/23 11:44:10;;;;;;;9.20;2.67;;;11.20;99.90;;;;;;5105282;27;20042;-71
2021/10/23 11:46:38;;;;;;;9.05;2.30;;;11.30;99.90;;;;;;5105871;27;20099;-71
2021/10/23 11:49:07;;;;;;;12.05;2.35;;;11.30;99.90;;;;;;5108154;27;20126;-71
2021/10/23 11:51:34;;;;;;;9.73;2.33;;;11.40;99.90;;;;;;5107803;27;20058;-71
2021/10/23 11:54:05;;;;;;;7.90;1.70;;;11.30;99.90;;;;;;5090565;27;20672;-71
2021/10/23 11:56:31;;;;;;;9.32;2.25;;;11.30;99.90;;;;;;5104540;27;20048;-71
2021/10/23 11:58:59;;;;;;;10.20;2.65;;;11.30;99.90;;;;;;5089486;27;20050;-71
2021/10/23 12:01:29;;;;;;;7.60;1.90;;;11.30;99.90;;;;;;5069707;27;20039;-71
2021/10/23 12:04:02;;;;;;;9.18;2.00;;;11.30;99.90;;;;;;5090105;27;20057;-71
2021/10/23 12:06:38;;;;;;;8.63;1.80;;;11.40;99.90;;;;;;5087634;27;20137;-72
2021/10/23 12:09:18;;;;;;;6.78;1.67;;;11.50;99.90;;;;;;5107021;27;20054;-71
2021/10/23 12:11:44;;;;;;;7.57;1.65;;;11.50;99.90;;;;;;5089035;27;20122;-71
2021/10/23 12:14:12;;;;;;;8.48;2.13;;;11.50;99.90;;;;;;5089312;27;20043;-71
2021/10/23 12:16:49;;;;;;;5.90;1.83;;;11.40;99.90;;;;;;5104819;27;20413;-71
2021/10/23 12:19:20;;;;;;;7.55;1.52;;;11.40;99.90;;;;;;5106808;27;20084;-71
2021/10/23 12:21:55;;;;;;;11.43;2.38;;;11.40;99.90;;;;;;5090289;27;20062;-71
2021/10/23 12:24:25;;;;;;;10.68;1.90;;;11.40;99.90;;;;;;5107209;27;20051;-71
2021/10/23 12:27:19;;;;;;;7.70;1.83;;;11.30;99.90;;;;;;5088540;27;20077;-71
2021/10/23 12:29:55;;;;;;;8.88;1.58;;;11.30;99.90;;;;;;5103098;27;20559;-70
2021/10/23 12:32:26;;;;;;;8.98;1.80;;;11.40;99.90;;;;;;5090750;27;20078;-71
2021/10/23 12:34:53;;;;;;;8.82;1.73;;;11.40;99.90;;;;;;5106894;27;20050;-71
2021/10/23 12:37:28;;;;;;;13.55;2.40;;;11.40;99.90;;;;;;5090491;27;20051;-71
2021/10/23 12:40:36;;;;;;;10.63;2.05;;;11.50;99.90;;;;;;5104685;27;20042;-72
2021/10/23 12:43:07;;;;;;;9.15;2.15;;;11.50;99.90;;;;;;5094102;27;20050;-71
2021/10/23 12:45:59;;;;;;;9.98;1.77;;;11.50;99.90;;;;;;5089296;27;20678;-71
2021/10/23 12:48:25;;;;;;;11.18;1.95;;;11.50;99.90;;;;;;5086148;27;20051;-72
2021/10/23 12:50:51;;;;;;;6.78;1.70;;;11.50;99.90;;;;;;5073216;27;20118;-72
2021/10/23 12:53:18;;;;;;;5.93;1.42;;;11.50;99.90;;;;;;5106991;27;20058;-72
2021/10/23 12:55:44;;;;;;;9.27;2.38;;;11.50;99.90;;;;;;5105660;27;20039;-71
2021/10/23 12:58:10;;;;;;;8.15;1.73;;;11.50;99.90;;;;;;5103167;27;20082;-71
2021/10/23 13:00:38;;;;;;;10.18;1.90;;;11.40;99.90;;;;;;5083947;28;20158;-71